createdAt,value
2018-12-08T00:00:42.428Z,46.83
2018-12-08T00:03:13.322Z,46.27
2018-12-08T00:05:43.828Z,47.10
2018-12-08T00:08:14.743Z,59.93
2018-12-08T00:10:45.744Z,51.00
2018-12-08T00:13:16.365Z,37.13
2018-12-08T00:15:46.641Z,40.37
2018-12-08T00:18:17.396Z,38.20
2018-12-08T00:20:48.008Z,47.13
2018-12-08T00:23:17.860Z,68.33
2018-12-08T00:25:47.665Z,56.43
2018-12-08T00:28:17.424Z,75.67
2018-12-08T00:30:57.804Z,66.73
2018-12-08T00:33:27.464Z,61.87
2018-12-08T00:35:57.184Z,58.37
2018-12-08T00:38:27.080Z,70.73
2018-12-08T00:40:57.527Z,55.07
2018-12-08T00:43:28.028Z,55.73
2018-12-08T00:45:58.499Z,66.13
2018-12-08T00:48:29.511Z,62.27
2018-12-08T00:51:00.076Z,58.70
2018-12-08T00:53:30.753Z,56.90
2018-12-08T00:56:01.226Z,62.43
2018-12-08T00:58:32.114Z,56.70
2018-12-08T01:01:02.864Z,45.87
2018-12-08T01:03:33.438Z,50.27
2018-12-08T01:06:04.068Z,55.73
2018-12-08T01:08:34.643Z,41.23
2018-12-08T01:11:05.456Z,45.83
2018-12-08T01:13:36.232Z,46.67
2018-12-08T01:16:06.538Z,46.40
2018-12-08T01:18:36.995Z,45.53
2018-12-08T01:21:08.511Z,39.87
2018-12-08T01:23:38.503Z,38.63
2018-12-08T01:26:08.347Z,40.07
2018-12-08T01:28:38.230Z,35.00
2018-12-08T01:31:08.401Z,37.30
2018-12-08T01:33:38.905Z,30.03
2018-12-08T01:36:09.319Z,28.47
2018-12-08T01:38:39.936Z,55.57
2018-12-08T01:41:10.480Z,38.43
2018-12-08T01:43:40.809Z,54.97
2018-12-08T01:46:11.299Z,49.50
2018-12-08T01:48:41.963Z,68.77
2018-12-08T01:51:12.601Z,53.50
2018-12-08T01:53:43.224Z,49.67
2018-12-08T01:56:14.053Z,44.00
2018-12-08T01:58:44.568Z,55.70
2018-12-08T02:01:15.212Z,45.33
2018-12-08T02:03:45.944Z,33.53
2018-12-08T02:06:16.479Z,65.33
2018-12-08T02:08:47.089Z,47.57
2018-12-08T02:11:24.695Z,66.37
2018-12-08T02:13:49.989Z,40.07
2018-12-08T02:16:20.945Z,49.73
2018-12-08T02:18:51.451Z,62.07
2018-12-08T02:21:22.420Z,52.63
2018-12-08T02:23:53.028Z,45.33
2018-12-08T02:26:23.782Z,37.30
2018-12-08T02:28:54.064Z,51.10
2018-12-08T02:31:24.968Z,49.37
2018-12-08T02:33:55.348Z,39.63
2018-12-08T02:36:25.907Z,46.20
2018-12-08T02:38:56.259Z,34.30
2018-12-08T02:41:27.249Z,27.43
2018-12-08T02:43:57.769Z,29.83
2018-12-08T02:46:28.143Z,30.40
2018-12-08T02:48:58.812Z,152.27
2018-12-08T02:51:29.817Z,63.57
2018-12-08T02:54:00.379Z,50.20
2018-12-08T02:56:30.909Z,46.00
2018-12-08T02:59:02.093Z,27.63
2018-12-08T03:01:33.459Z,29.40
2018-12-08T03:04:04.200Z,23.30
2018-12-08T03:06:35.096Z,35.00
2018-12-08T03:09:07.531Z,42.03
2018-12-08T03:15:26.908Z,36.87
2018-12-08T03:17:57.319Z,34.20
2018-12-08T03:20:27.932Z,49.97
2018-12-08T03:22:58.470Z,59.17
2018-12-08T03:25:29.171Z,72.63
2018-12-08T03:27:59.912Z,52.13
2018-12-08T03:30:30.445Z,60.67
2018-12-08T03:33:00.888Z,58.20
2018-12-08T03:35:31.230Z,55.23
2018-12-08T03:38:01.674Z,58.17
2018-12-08T03:40:32.097Z,46.40
2018-12-08T03:43:03.795Z,60.40
2018-12-08T03:45:34.405Z,53.73
2018-12-08T03:48:04.276Z,71.03
2018-12-08T03:50:34.192Z,62.97
2018-12-08T03:53:05.727Z,63.93
2018-12-08T03:55:36.296Z,40.53
2018-12-08T03:58:06.441Z,37.90
2018-12-08T04:00:36.259Z,36.47
2018-12-08T04:03:06.770Z,29.33
2018-12-08T04:05:36.584Z,38.27
2018-12-08T04:08:06.412Z,40.07
2018-12-08T04:10:36.269Z,45.97
2018-12-08T04:13:06.155Z,38.23
2018-12-08T04:15:36.077Z,31.13
2018-12-08T04:18:06.027Z,36.60
2018-12-08T04:20:35.812Z,40.43
2018-12-08T04:23:05.651Z,47.53
2018-12-08T04:25:35.532Z,40.47
2018-12-08T04:28:05.271Z,35.97
2018-12-08T04:30:35.049Z,62.10
2018-12-08T04:33:04.874Z,67.10
2018-12-08T04:35:34.761Z,41.83
2018-12-08T04:38:04.655Z,45.30
2018-12-08T04:40:34.513Z,49.80
2018-12-08T04:43:04.239Z,32.87
2018-12-08T04:45:34.171Z,46.83
2018-12-08T04:48:04.074Z,41.07
2018-12-08T04:50:34.165Z,74.00
2018-12-08T04:53:04.568Z,66.13
2018-12-08T04:55:35.310Z,44.47
2018-12-08T04:58:05.909Z,43.10
2018-12-08T05:00:36.584Z,49.93
2018-12-08T05:03:08.291Z,39.33
2018-12-08T05:05:39.157Z,50.23
2018-12-08T05:08:09.686Z,39.80
2018-12-08T05:10:40.110Z,58.00
2018-12-08T05:13:10.729Z,52.20
2018-12-08T05:15:41.484Z,82.20
2018-12-08T05:18:11.899Z,131.13
2018-12-08T05:20:42.524Z,106.80
2018-12-08T05:23:13.355Z,53.63
2018-12-08T05:25:43.914Z,78.90
2018-12-08T05:28:14.761Z,103.40
2018-12-08T05:30:45.124Z,122.63
2018-12-08T05:33:15.919Z,109.90
2018-12-08T05:35:46.955Z,143.43
2018-12-08T05:38:17.744Z,102.00
2018-12-08T05:40:48.543Z,128.10
2018-12-08T05:43:19.968Z,111.90
2018-12-08T05:45:50.400Z,151.83
2018-12-08T05:48:20.989Z,95.97
2018-12-08T05:50:51.504Z,57.93
2018-12-08T05:53:22.664Z,44.37
2018-12-08T06:00:46.491Z,32.50
2018-12-08T06:03:16.794Z,29.57
2018-12-08T06:05:47.281Z,54.37
2018-12-08T06:08:17.892Z,50.80
2018-12-08T06:10:48.326Z,92.80
2018-12-08T06:13:18.877Z,80.17
2018-12-08T06:15:49.240Z,70.33
2018-12-08T06:18:20.875Z,74.53
2018-12-08T06:20:51.441Z,113.53
2018-12-08T06:23:22.077Z,147.57
2018-12-08T06:25:52.963Z,136.77
2018-12-08T06:28:29.635Z,256.30
2018-12-08T06:31:00.316Z,206.63
2018-12-08T06:33:30.861Z,196.57
2018-12-08T06:36:01.027Z,245.87
2018-12-08T06:38:32.908Z,127.33
2018-12-08T06:41:03.516Z,114.03
2018-12-08T06:43:33.796Z,92.90
2018-12-08T06:46:04.568Z,113.93
2018-12-08T06:48:36.057Z,111.40
2018-12-08T06:51:06.632Z,133.70
2018-12-08T06:53:37.139Z,141.10
2018-12-08T06:56:07.723Z,200.10
2018-12-08T06:58:38.041Z,178.00
2018-12-08T07:01:08.631Z,155.70
2018-12-08T07:03:39.129Z,148.20
2018-12-08T07:06:09.624Z,132.53
2018-12-08T07:08:40.763Z,121.07
2018-12-08T07:11:11.177Z,103.27
2018-12-08T07:13:41.620Z,83.23
2018-12-08T07:16:12.174Z,69.93
2018-12-08T07:18:43.344Z,107.17
2018-12-08T07:21:14.065Z,85.23
2018-12-08T07:23:44.633Z,71.87
2018-12-08T07:26:15.202Z,66.50
2018-12-08T07:28:46.531Z,56.80
2018-12-08T07:31:17.172Z,59.27
2018-12-08T07:33:47.514Z,53.63
2018-12-08T07:36:18.222Z,61.03
2018-12-08T07:38:48.968Z,58.80
2018-12-08T07:41:19.497Z,59.10
2018-12-08T07:43:49.983Z,66.40
2018-12-08T07:46:20.551Z,60.17
2018-12-08T07:48:51.382Z,62.00
2018-12-08T07:51:21.998Z,65.43
2018-12-08T07:53:52.666Z,43.20
2018-12-08T07:56:22.482Z,49.17
2018-12-08T07:58:52.366Z,44.07
2018-12-08T08:01:22.578Z,53.50
2018-12-08T08:03:52.635Z,58.60
2018-12-08T08:06:22.508Z,53.13
2018-12-08T08:08:52.468Z,63.87
2018-12-08T08:11:22.334Z,84.63
2018-12-08T08:13:52.221Z,64.70
2018-12-08T08:16:22.088Z,67.13
2018-12-08T08:18:51.973Z,68.83
2018-12-08T08:21:21.912Z,71.80
2018-12-08T08:23:51.800Z,89.73
2018-12-08T08:26:21.709Z,73.13
2018-12-08T08:28:51.594Z,73.13
2018-12-08T08:31:21.400Z,83.73
2018-12-08T08:33:51.892Z,74.30
2018-12-08T08:36:21.805Z,62.90
2018-12-08T08:38:51.690Z,67.20
2018-12-08T08:41:21.597Z,65.87
2018-12-08T08:43:51.519Z,60.07
2018-12-08T08:46:21.420Z,81.80
2018-12-08T08:48:51.320Z,64.23
2018-12-08T08:51:21.133Z,70.90
2018-12-08T08:53:51.059Z,91.47
2018-12-08T08:56:20.982Z,65.00
2018-12-08T08:58:50.834Z,70.60
2018-12-08T09:01:20.706Z,62.73
2018-12-08T09:03:50.868Z,69.80
2018-12-08T09:06:20.776Z,73.00
2018-12-08T09:08:50.757Z,53.00
2018-12-08T09:11:20.624Z,53.17
2018-12-08T09:13:50.493Z,39.60
2018-12-08T09:16:20.377Z,40.83
2018-12-08T09:18:50.165Z,47.70
2018-12-08T09:21:20.012Z,35.10
2018-12-08T09:23:49.798Z,55.10
2018-12-08T09:26:19.700Z,55.73
2018-12-08T09:28:49.484Z,50.17
2018-12-08T09:31:20.347Z,68.30
2018-12-08T09:33:52.924Z,24.70
2018-12-08T09:36:23.367Z,50.47
2018-12-08T09:38:53.884Z,33.43
2018-12-08T09:41:24.646Z,40.17
2018-12-08T09:43:55.349Z,23.97
2018-12-08T09:46:25.876Z,26.17
2018-12-08T09:48:57.600Z,36.57
2018-12-08T09:51:28.292Z,37.70
2018-12-08T09:53:58.545Z,39.77
2018-12-08T09:56:29.261Z,33.73
2018-12-08T09:58:59.418Z,32.43
2018-12-08T10:01:29.330Z,27.87
2018-12-08T10:03:59.310Z,32.97
2018-12-08T10:06:29.200Z,30.97
2018-12-08T10:08:59.097Z,33.60
2018-12-08T10:11:29.000Z,35.13
2018-12-08T10:13:58.831Z,23.20
2018-12-08T10:16:28.711Z,29.43
2018-12-08T10:18:58.607Z,35.80
2018-12-08T10:21:28.460Z,29.33
2018-12-08T10:23:58.187Z,28.10
2018-12-08T10:26:28.050Z,39.30
2018-12-08T10:28:57.853Z,43.87
2018-12-08T10:31:27.729Z,35.73
2018-12-08T10:33:57.632Z,56.93
2018-12-08T10:36:27.532Z,39.90
2018-12-08T10:38:57.367Z,35.50
2018-12-08T10:41:27.250Z,33.40
2018-12-08T10:43:57.141Z,51.33
2018-12-08T10:46:27.070Z,47.80
2018-12-08T10:48:56.970Z,44.00
2018-12-08T10:51:26.819Z,55.90
2018-12-08T10:53:56.650Z,41.10
2018-12-08T10:56:26.545Z,58.80
2018-12-08T10:58:56.407Z,117.43
2018-12-08T11:01:30.232Z,95.27
2018-12-08T11:04:00.114Z,204.67
2018-12-08T11:06:30.395Z,47.33
2018-12-08T11:09:00.776Z,53.77
2018-12-08T11:11:30.632Z,46.40
2018-12-08T11:14:00.536Z,63.23
2018-12-08T11:16:30.464Z,90.70
2018-12-08T11:19:00.279Z,39.43
2018-12-08T11:21:30.209Z,62.13
2018-12-08T11:24:00.084Z,56.43
2018-12-08T11:26:29.945Z,65.93
2018-12-08T11:28:59.927Z,44.07
2018-12-08T11:31:29.813Z,61.10
2018-12-08T11:33:59.650Z,49.57
2018-12-08T11:36:30.035Z,49.60
2018-12-08T11:39:00.645Z,56.67
2018-12-08T11:41:30.841Z,64.10
2018-12-08T11:44:00.724Z,64.80
2018-12-08T11:46:30.601Z,54.80
2018-12-08T11:49:01.186Z,60.97
2018-12-08T11:51:31.595Z,73.00
2018-12-08T11:54:02.211Z,115.23
2018-12-08T11:56:32.651Z,102.60
2018-12-08T11:59:03.268Z,108.63
2018-12-08T12:01:33.920Z,104.70
2018-12-08T12:04:04.620Z,80.13
2018-12-08T12:06:35.332Z,94.07
2018-12-08T12:09:08.309Z,106.00
2018-12-08T12:11:39.220Z,75.53
2018-12-08T12:14:10.445Z,75.67
2018-12-08T12:16:41.339Z,69.27
2018-12-08T12:19:13.440Z,92.73
2018-12-08T12:21:44.567Z,72.63
2018-12-08T12:24:14.971Z,66.27
2018-12-08T12:26:45.804Z,41.07
2018-12-08T12:29:17.555Z,55.07
2018-12-08T12:31:48.012Z,60.27
2018-12-08T12:34:19.043Z,56.93
2018-12-08T12:36:49.868Z,42.27
2018-12-08T12:39:21.387Z,62.90
2018-12-08T12:41:52.181Z,58.43
2018-12-08T12:44:23.463Z,85.40
2018-12-08T12:46:54.168Z,59.77
2018-12-08T12:49:24.391Z,56.87
2018-12-08T12:51:54.358Z,56.93
2018-12-08T12:54:24.728Z,54.27
2018-12-08T12:56:55.355Z,42.27
2018-12-08T12:59:26.345Z,47.33
2018-12-08T13:01:57.083Z,48.83
2018-12-08T13:04:27.570Z,71.27
2018-12-08T13:06:58.855Z,70.60
2018-12-08T13:09:29.671Z,88.37
2018-12-08T13:12:00.413Z,107.03
2018-12-08T13:14:31.007Z,91.33
2018-12-08T13:17:01.629Z,130.40
2018-12-08T13:19:33.268Z,82.33
2018-12-08T13:22:03.582Z,68.67
2018-12-08T13:24:34.644Z,75.20
2018-12-08T13:27:05.267Z,83.67
2018-12-08T13:29:37.073Z,128.17
2018-12-08T13:32:07.690Z,131.13
2018-12-08T13:34:38.307Z,115.33
2018-12-08T13:37:09.066Z,136.50
2018-12-08T13:39:39.887Z,130.47
2018-12-08T13:42:10.513Z,156.93
2018-12-08T13:44:41.580Z,139.60
2018-12-08T13:47:12.078Z,165.97
2018-12-08T13:49:43.267Z,202.00
2018-12-08T13:52:13.978Z,178.13
2018-12-08T13:54:51.224Z,177.93
2018-12-08T13:57:21.828Z,154.70
2018-12-08T13:59:54.686Z,148.13
2018-12-08T14:02:25.263Z,164.10
2018-12-08T14:04:56.068Z,216.20
2018-12-08T14:07:27.106Z,256.70
2018-12-08T14:09:57.900Z,229.83
2018-12-08T14:12:28.320Z,189.00
2018-12-08T14:14:58.852Z,187.57
2018-12-08T14:17:29.499Z,183.10
2018-12-08T14:20:10.218Z,188.33
2018-12-08T14:22:41.051Z,185.73
2018-12-08T14:25:11.811Z,196.63
2018-12-08T14:27:42.524Z,233.57
2018-12-08T14:30:13.681Z,244.00
2018-12-08T14:32:44.318Z,313.83
2018-12-08T14:35:15.052Z,249.60
2018-12-08T14:37:45.599Z,245.27
2018-12-08T14:40:16.751Z,246.23
2018-12-08T14:42:47.585Z,277.87
2018-12-08T14:45:18.483Z,258.67
2018-12-08T14:47:49.156Z,287.67
2018-12-08T14:50:20.683Z,273.90
2018-12-08T14:52:51.395Z,259.80
2018-12-08T14:55:21.796Z,276.60
2018-12-08T14:57:52.164Z,274.30
2018-12-08T15:00:22.618Z,291.07
2018-12-08T15:02:53.133Z,334.87
2018-12-08T15:05:23.396Z,249.50
2018-12-08T15:07:53.771Z,123.27
2018-12-08T15:10:25.333Z,122.40
2018-12-08T15:12:55.999Z,94.63
2018-12-08T15:15:26.364Z,107.47
2018-12-08T15:17:57.211Z,193.67
2018-12-08T15:20:28.807Z,191.03
2018-12-08T15:22:59.231Z,180.90
2018-12-08T15:25:29.303Z,162.43
2018-12-08T15:27:59.812Z,216.80
2018-12-08T15:30:30.172Z,179.87
2018-12-08T15:33:00.775Z,198.73
2018-12-08T15:35:31.319Z,176.87
2018-12-08T15:38:01.991Z,203.07
2018-12-08T15:40:32.749Z,206.53
2018-12-08T15:43:03.138Z,160.83
2018-12-08T15:45:33.938Z,137.23
2018-12-08T15:48:04.367Z,146.77
2018-12-08T15:50:34.616Z,162.47
2018-12-08T15:53:05.208Z,178.00
2018-12-08T15:55:35.826Z,167.23
2018-12-08T15:58:06.704Z,155.87
2018-12-08T16:00:38.455Z,176.77
2018-12-08T16:03:09.194Z,190.43
2018-12-08T16:05:39.941Z,190.57
2018-12-08T16:08:10.969Z,190.67
2018-12-08T16:10:42.246Z,281.20
2018-12-08T16:13:12.718Z,202.73
2018-12-08T16:15:43.374Z,198.97
2018-12-08T16:18:14.124Z,187.43
2018-12-08T16:20:45.463Z,336.93
2018-12-08T16:23:15.956Z,170.60
2018-12-08T16:25:46.500Z,227.50
2018-12-08T16:28:17.258Z,231.80
2018-12-08T16:30:48.516Z,239.83
2018-12-08T16:33:18.931Z,283.20
2018-12-08T16:35:49.445Z,155.37
2018-12-08T16:38:19.736Z,144.57
2018-12-08T16:40:51.139Z,132.23
2018-12-08T16:43:21.825Z,178.87
2018-12-08T16:45:52.668Z,168.93
2018-12-08T16:48:23.407Z,166.73
2018-12-08T16:50:55.080Z,194.77
2018-12-08T16:53:25.344Z,278.43
2018-12-08T16:55:55.594Z,226.80
2018-12-08T16:58:25.983Z,242.60
2018-12-08T17:00:58.077Z,209.60
2018-12-08T17:03:28.630Z,208.90
2018-12-08T17:05:59.373Z,191.47
2018-12-08T17:08:30.244Z,342.27
2018-12-08T17:11:01.355Z,319.07
2018-12-08T17:13:32.016Z,230.20
2018-12-08T17:16:02.332Z,292.50
2018-12-08T17:18:32.547Z,323.70
2018-12-08T17:21:03.980Z,287.47
2018-12-08T17:23:34.477Z,417.30
2018-12-08T17:26:05.134Z,439.13
2018-12-08T17:28:35.836Z,281.00
2018-12-08T17:31:07.828Z,208.97
2018-12-08T17:33:38.767Z,231.50
2018-12-08T17:36:09.265Z,202.43
2018-12-08T17:38:40.122Z,253.47
2018-12-08T17:41:11.132Z,225.80
2018-12-08T17:43:41.703Z,178.90
2018-12-08T17:46:12.613Z,179.70
2018-12-08T17:48:43.357Z,194.53
2018-12-08T17:51:14.110Z,173.10
2018-12-08T17:53:44.615Z,194.27
2018-12-08T17:56:15.352Z,184.37
2018-12-08T17:58:45.879Z,175.27
2018-12-08T18:01:17.059Z,174.07
2018-12-08T18:03:47.580Z,174.50
2018-12-08T18:06:18.167Z,160.80
2018-12-08T18:08:48.830Z,195.73
2018-12-08T18:11:19.921Z,149.60
2018-12-08T18:13:50.352Z,158.97
2018-12-08T18:16:20.924Z,150.87
2018-12-08T18:18:51.347Z,137.17
2018-12-08T18:21:22.771Z,271.80
2018-12-08T18:23:53.567Z,188.03
2018-12-08T18:26:23.828Z,192.43
2018-12-08T18:28:54.455Z,212.50
2018-12-08T18:31:25.742Z,221.97
2018-12-08T18:33:56.097Z,239.83
2018-12-08T18:36:26.786Z,242.73
2018-12-08T18:38:57.401Z,333.67
2018-12-08T18:41:28.245Z,307.73
2018-12-08T18:43:58.894Z,305.37
2018-12-08T18:46:29.396Z,273.10
2018-12-08T18:48:59.727Z,277.37
2018-12-08T18:51:30.287Z,325.70
2018-12-08T18:54:00.796Z,319.93
2018-12-08T18:56:31.315Z,249.93
2018-12-08T18:59:02.168Z,278.50
2018-12-08T19:01:33.501Z,220.70
2018-12-08T19:04:04.069Z,173.07
2018-12-08T19:06:34.599Z,144.50
2018-12-08T19:10:08.842Z,144.23
2018-12-08T19:12:39.634Z,179.90
2018-12-08T19:15:11.012Z,165.90
2018-12-08T19:17:42.261Z,172.93
2018-12-08T19:20:13.533Z,147.07
2018-12-08T19:22:43.976Z,153.17
2018-12-08T19:25:14.859Z,118.80
2018-12-08T19:27:46.805Z,142.97
2018-12-08T19:30:17.953Z,178.47
2018-12-08T19:32:48.585Z,183.13
2018-12-08T19:35:18.968Z,197.53
2018-12-08T19:37:50.406Z,202.77
2018-12-08T19:40:21.460Z,161.47
2018-12-08T19:42:52.309Z,161.80
2018-12-08T19:45:23.281Z,177.33
2018-12-08T19:47:54.667Z,168.63
2018-12-08T19:50:24.942Z,179.80
2018-12-08T19:52:56.067Z,147.30
2018-12-08T19:55:26.587Z,148.57
2018-12-08T19:57:57.207Z,136.27
2018-12-08T20:00:27.910Z,202.33
2018-12-08T20:02:57.980Z,256.47
2018-12-08T20:05:28.922Z,219.70
2018-12-08T20:08:00.240Z,293.27
2018-12-08T20:10:31.217Z,244.00
2018-12-08T20:13:01.801Z,237.57
2018-12-08T20:15:32.557Z,227.67
2018-12-08T20:18:03.936Z,259.53
2018-12-08T20:20:34.478Z,217.13
2018-12-08T20:23:05.194Z,207.30
2018-12-08T20:25:35.803Z,188.30
2018-12-08T20:28:06.641Z,178.37
2018-12-08T20:30:37.499Z,160.77
2018-12-08T20:33:07.871Z,165.90
2018-12-08T20:35:38.702Z,145.60
2018-12-08T20:38:09.676Z,153.00
2018-12-08T20:40:40.400Z,153.70
2018-12-08T20:43:11.048Z,239.13
2018-12-08T20:45:41.463Z,248.67
2018-12-08T20:48:12.741Z,171.37
2018-12-08T20:50:43.243Z,148.60
2018-12-08T20:53:15.081Z,154.63
2018-12-08T20:55:45.944Z,154.57
2018-12-08T20:58:17.709Z,154.50
2018-12-08T21:00:48.263Z,127.73
2018-12-08T21:03:19.382Z,157.90
2018-12-08T21:05:50.064Z,128.37
2018-12-08T21:08:20.989Z,138.27
2018-12-08T21:10:51.924Z,127.97
2018-12-08T21:13:22.294Z,135.97
2018-12-08T21:15:52.903Z,112.47
2018-12-08T21:18:23.757Z,124.53
2018-12-08T21:20:54.157Z,115.03
2018-12-08T21:23:24.643Z,90.67
2018-12-08T21:25:55.244Z,80.00
2018-12-08T21:28:26.670Z,74.33
2018-12-08T21:30:57.249Z,71.20
2018-12-08T21:33:27.974Z,48.27
2018-12-08T21:35:58.875Z,45.70
2018-12-08T21:38:30.084Z,52.30
2018-12-08T21:41:00.623Z,49.40
2018-12-08T21:43:31.081Z,63.87
2018-12-08T21:46:02.009Z,76.10
2018-12-08T21:48:33.720Z,91.90
2018-12-08T21:51:04.338Z,98.60
2018-12-08T21:53:34.777Z,88.83
2018-12-08T21:56:05.163Z,70.63
2018-12-08T21:58:36.227Z,67.00
2018-12-08T22:01:06.977Z,48.50
2018-12-08T22:03:37.375Z,57.23
2018-12-08T22:06:08.076Z,53.83
2018-12-08T22:08:38.728Z,60.40
2018-12-08T22:11:09.814Z,60.30
2018-12-08T22:13:40.340Z,52.57
2018-12-08T22:16:10.847Z,52.23
2018-12-08T22:18:42.621Z,69.53
2018-12-08T22:21:13.622Z,85.37
2018-12-08T22:23:44.374Z,63.83
2018-12-08T22:26:15.785Z,68.40
2018-12-08T22:28:47.595Z,67.50
2018-12-08T22:31:18.412Z,44.33
2018-12-08T22:33:49.100Z,38.47
2018-12-08T22:36:19.977Z,47.43
2018-12-08T22:38:50.920Z,25.90
2018-12-08T22:41:21.885Z,30.83
2018-12-08T22:43:52.668Z,27.73
2018-12-08T22:46:23.653Z,43.53
2018-12-08T22:48:54.543Z,27.90
2018-12-08T22:51:26.545Z,31.50
2018-12-08T22:53:57.344Z,62.37
2018-12-08T22:56:27.833Z,95.63
2018-12-08T22:58:58.959Z,95.77
2018-12-08T23:01:29.420Z,103.97
2018-12-08T23:04:00.196Z,105.73
2018-12-08T23:06:31.092Z,113.57
2018-12-08T23:09:02.542Z,74.83
2018-12-08T23:11:33.246Z,72.10
2018-12-08T23:14:03.871Z,73.23
2018-12-08T23:16:34.379Z,76.70
2018-12-08T23:19:04.942Z,77.27
2018-12-08T23:21:35.467Z,91.13
2018-12-08T23:24:05.756Z,82.90
2018-12-08T23:26:36.089Z,66.23
2018-12-08T23:29:07.004Z,61.27
2018-12-08T23:31:37.440Z,59.37
2018-12-08T23:34:08.061Z,54.03
2018-12-08T23:36:38.726Z,65.20
2018-12-08T23:39:09.348Z,52.33
2018-12-08T23:41:40.065Z,58.87
2018-12-08T23:44:10.531Z,65.10
2018-12-08T23:46:40.979Z,66.80
2018-12-08T23:49:12.489Z,70.63
2018-12-08T23:51:43.018Z,101.23
2018-12-08T23:54:13.564Z,69.13
2018-12-08T23:56:44.260Z,58.97
2018-12-08T23:59:15.876Z,53.93
